Time;durP1;ratioP1;P1;durP2;ratioP2;P2;SDS_P1;SDS_P2;PMS_P1;PMS_P2;Temp;Humidity;BMP_temperature;BMP_pressure;BME280_temperature;BME280_humidity;BME280_pressure;Samples;Min_cycle;Max_cycle;Signal;HPM_P1;HPM_P2
2023/06/04 00:00:27;;;;;;;6.07;4.57;;;16.90;91.90;;;;;;5091828;28;20227;-61
2023/06/04 00:02:54;;;;;;;5.25;4.35;;;16.90;92.10;;;;;;5091755;28;20409;-61
2023/06/04 00:05:25;;;;;;;7.95;3.78;;;16.80;92.30;;;;;;5091642;28;20228;-61
2023/06/04 00:07:52;;;;;;;4.97;4.00;;;16.80;92.00;;;;;;5092214;28;20208;-61
2023/06/04 00:10:18;;;;;;;8.10;3.20;;;16.80;91.80;;;;;;5091448;28;20722;-62
2023/06/04 00:12:45;;;;;;;4.07;3.38;;;16.70;90.70;;;;;;5091639;28;20208;-61
2023/06/04 00:15:12;;;;;;;7.03;3.30;;;16.80;90.20;;;;;;5091426;28;20228;-62
2023/06/04 00:17:38;;;;;;;4.78;3.42;;;16.70;89.60;;;;;;5091386;28;20673;-61
2023/06/04 00:20:06;;;;;;;5.10;3.65;;;16.60;89.40;;;;;;5091417;28;20227;-61
2023/06/04 00:22:34;;;;;;;8.38;3.33;;;16.70;88.80;;;;;;5091683;28;20355;-65
2023/06/04 00:25:01;;;;;;;6.40;3.30;;;16.70;88.70;;;;;;5091461;28;20596;-61
2023/06/04 00:27:27;;;;;;;5.80;3.30;;;16.70;88.90;;;;;;5091490;28;20216;-61
2023/06/04 00:29:54;;;;;;;3.80;2.83;;;16.70;88.80;;;;;;5091280;28;20208;-62
2023/06/04 00:32:21;;;;;;;5.60;3.05;;;16.80;88.70;;;;;;5091468;28;20228;-61
2023/06/04 00:34:51;;;;;;;6.30;3.05;;;16.80;88.40;;;;;;5091525;28;20228;-62
2023/06/04 00:37:18;;;;;;;4.45;2.92;;;16.70;89.30;;;;;;5094246;28;20295;-62
2023/06/04 00:39:46;;;;;;;4.90;2.90;;;16.70;88.60;;;;;;5095324;28;20232;-60
2023/06/04 00:42:13;;;;;;;7.53;2.97;;;16.70;88.00;;;;;;5095201;28;20610;-61
2023/06/04 00:44:44;;;;;;;6.13;3.05;;;16.70;87.60;;;;;;5095099;28;20285;-61
2023/06/04 00:47:11;;;;;;;3.05;2.45;;;16.70;86.80;;;;;;5095201;28;20274;-60
2023/06/04 00:49:38;;;;;;;3.03;2.38;;;16.70;86.30;;;;;;5095192;28;20201;-61
2023/06/04 00:52:05;;;;;;;4.53;2.50;;;16.70;85.50;;;;;;5094971;28;20208;-61
2023/06/04 00:54:33;;;;;;;6.60;2.50;;;16.70;84.70;;;;;;5095197;28;20597;-60
2023/06/04 00:57:02;;;;;;;4.15;2.17;;;16.70;84.20;;;;;;5094893;28;20207;-60
2023/06/04 00:59:30;;;;;;;4.93;2.05;;;16.70;83.60;;;;;;5094932;28;20227;-61
2023/06/04 01:02:02;;;;;;;2.50;2.13;;;16.60;82.90;;;;;;5095673;28;20235;-60
2023/06/04 01:04:33;;;;;;;2.90;2.40;;;16.60;82.50;;;;;;5094853;28;20250;-61
2023/06/04 01:07:04;;;;;;;3.53;2.40;;;16.60;82.90;;;;;;5094760;28;20257;-61
2023/06/04 01:09:31;;;;;;;3.25;2.10;;;16.60;82.00;;;;;;5094976;28;20235;-61
2023/06/04 01:11:58;;;;;;;3.38;2.13;;;16.60;81.70;;;;;;5094911;28;20494;-61
2023/06/04 01:14:26;;;;;;;2.85;2.13;;;16.60;81.40;;;;;;5095040;28;20248;-61
2023/06/04 01:17:02;;;;;;;2.38;2.00;;;16.60;81.20;;;;;;5094373;28;20673;-61
2023/06/04 01:19:59;;;;;;;4.55;2.50;;;16.60;80.90;;;;;;5094581;28;20725;-61
2023/06/04 01:22:34;;;;;;;5.43;2.00;;;16.60;80.90;;;;;;5067501;28;20212;-61
2023/06/04 01:25:04;;;;;;;3.15;2.55;;;16.70;80.80;;;;;;5094530;28;20662;-61
2023/06/04 01:27:32;;;;;;;4.20;2.50;;;16.60;81.00;;;;;;5094252;28;20256;-61
2023/06/04 01:30:00;;;;;;;3.65;2.80;;;16.60;81.80;;;;;;5094731;28;20218;-62
2023/06/04 01:32:27;;;;;;;7.03;2.95;;;16.60;83.70;;;;;;5094563;28;20209;-60
2023/06/04 01:34:55;;;;;;;5.95;3.08;;;16.60;84.00;;;;;;5094129;28;20716;-61
2023/06/04 01:37:21;;;;;;;4.78;3.15;;;16.60;85.10;;;;;;5094122;28;20231;-61
2023/06/04 01:39:48;;;;;;;4.00;3.40;;;16.50;86.90;;;;;;5094029;28;20629;-61
2023/06/04 01:42:15;;;;;;;6.82;3.60;;;16.40;88.00;;;;;;5094374;28;20212;-61
2023/06/04 01:44:41;;;;;;;4.97;3.33;;;16.40;88.30;;;;;;5094197;28;20228;-62
2023/06/04 01:47:09;;;;;;;4.10;3.53;;;16.30;88.80;;;;;;5093757;28;20420;-61
2023/06/04 01:49:37;;;;;;;4.07;3.00;;;16.20;89.30;;;;;;5094363;28;20212;-61
2023/06/04 01:52:05;;;;;;;6.03;3.50;;;16.10;89.50;;;;;;5094242;28;20579;-61
2023/06/04 01:54:33;;;;;;;6.82;3.20;;;16.00;89.90;;;;;;5093804;28;20281;-61
2023/06/04 01:57:00;;;;;;;7.72;3.28;;;15.90;90.30;;;;;;5093863;28;20204;-61
2023/06/04 01:59:27;;;;;;;6.53;3.38;;;15.90;90.40;;;;;;5093828;28;20323;-61
2023/06/04 02:01:53;;;;;;;5.47;3.35;;;15.80;90.50;;;;;;5093859;28;20323;-61
2023/06/04 02:04:22;;;;;;;6.27;3.60;;;15.70;90.50;;;;;;5093612;28;20224;-61
2023/06/04 02:06:49;;;;;;;6.53;3.50;;;15.70;90.80;;;;;;5093377;28;20204;-61
2023/06/04 02:09:16;;;;;;;3.70;2.97;;;15.70;91.70;;;;;;5093810;28;20228;-62
2023/06/04 02:11:43;;;;;;;5.78;3.13;;;15.50;92.20;;;;;;5093662;28;20208;-61
2023/06/04 02:14:09;;;;;;;3.97;2.80;;;15.50;92.10;;;;;;5093771;28;20236;-61
2023/06/04 02:16:37;;;;;;;8.03;3.03;;;15.40;91.90;;;;;;5093385;28;20220;-61
2023/06/04 02:19:04;;;;;;;5.28;2.97;;;15.40;92.10;;;;;;5093439;28;20200;-61
2023/06/04 02:21:32;;;;;;;5.13;3.17;;;15.30;92.40;;;;;;5093534;28;20639;-61
2023/06/04 02:23:59;;;;;;;3.67;2.77;;;15.20;92.60;;;;;;5093535;28;20314;-60
2023/06/04 02:26:26;;;;;;;5.63;3.20;;;15.20;92.90;;;;;;5093573;28;20267;-61
2023/06/04 02:28:53;;;;;;;4.53;2.97;;;15.20;93.30;;;;;;5093716;28;20208;-61
2023/06/04 02:31:21;;;;;;;5.53;3.30;;;15.10;93.40;;;;;;5093343;28;20196;-61
2023/06/04 02:33:47;;;;;;;8.73;3.30;;;15.10;93.60;;;;;;5093401;28;20331;-61
2023/06/04 02:36:15;;;;;;;6.17;3.23;;;15.10;93.90;;;;;;5093491;28;20208;-60
2023/06/04 02:38:43;;;;;;;5.70;3.10;;;15.10;94.20;;;;;;5093604;28;20290;-62
2023/06/04 02:41:10;;;;;;;4.07;3.00;;;15.10;93.90;;;;;;5093081;28;20224;-61
2023/06/04 02:43:37;;;;;;;4.57;2.93;;;14.90;93.80;;;;;;5093166;28;20232;-62
2023/06/04 02:46:04;;;;;;;4.40;2.87;;;14.80;94.00;;;;;;5092905;28;20258;-60
2023/06/04 02:48:30;;;;;;;3.83;2.57;;;14.80;94.20;;;;;;5092874;28;20208;-61
2023/06/04 02:50:57;;;;;;;3.67;2.57;;;14.70;94.50;;;;;;5093091;28;20208;-60
2023/06/04 02:53:24;;;;;;;5.33;3.27;;;14.60;95.10;;;;;;5092724;28;20636;-60
2023/06/04 02:55:52;;;;;;;3.93;3.50;;;14.40;95.80;;;;;;5092463;28;20239;-61
2023/06/04 02:58:21;;;;;;;4.20;2.73;;;14.20;96.60;;;;;;5092209;28;20272;-61
2023/06/04 03:00:48;;;;;;;6.73;2.63;;;14.00;97.00;;;;;;5092612;28;20589;-61
2023/06/04 03:03:14;;;;;;;5.23;3.03;;;13.80;97.30;;;;;;5092560;28;20227;-61
2023/06/04 03:05:42;;;;;;;4.40;2.70;;;13.70;97.50;;;;;;5092630;28;20208;-60
2023/06/04 03:08:09;;;;;;;3.33;2.50;;;13.70;97.80;;;;;;5092663;28;20236;-62
2023/06/04 03:10:37;;;;;;;3.70;2.70;;;13.70;98.10;;;;;;5092575;28;20204;-60
2023/06/04 03:13:05;;;;;;;4.67;3.10;;;13.70;98.10;;;;;;5092704;28;20243;-61
2023/06/04 03:15:32;;;;;;;5.17;3.00;;;13.70;97.90;;;;;;5092706;28;20255;-61
2023/06/04 03:17:59;;;;;;;6.27;3.20;;;13.80;98.00;;;;;;5092431;28;20588;-62
2023/06/04 03:20:26;;;;;;;4.60;2.57;;;13.80;98.00;;;;;;5092569;28;20689;-61
2023/06/04 03:22:52;;;;;;;4.70;2.67;;;13.80;97.80;;;;;;5092390;28;20602;-61
2023/06/04 03:25:19;;;;;;;3.27;2.63;;;13.90;97.60;;;;;;5092260;28;20690;-61
2023/06/04 03:27:46;;;;;;;3.67;2.50;;;14.00;97.30;;;;;;5091863;28;20204;-62
2023/06/04 03:30:14;;;;;;;4.10;2.50;;;14.00;97.20;;;;;;5092118;28;20577;-61
2023/06/04 03:32:41;;;;;;;4.07;2.60;;;14.00;97.20;;;;;;5092340;28;20208;-60
2023/06/04 03:35:09;;;;;;;4.87;2.67;;;14.00;97.30;;;;;;5092093;28;20220;-61
2023/06/04 03:37:36;;;;;;;4.03;2.53;;;14.10;97.60;;;;;;5091813;28;20200;-61
2023/06/04 03:40:03;;;;;;;3.50;2.53;;;14.10;97.50;;;;;;5091802;28;20220;-60
2023/06/04 03:42:30;;;;;;;3.93;2.80;;;14.10;97.50;;;;;;5091998;28;20240;-61
2023/06/04 03:44:57;;;;;;;5.13;2.80;;;14.20;97.60;;;;;;5091640;28;20227;-61
2023/06/04 03:47:25;;;;;;;3.63;2.60;;;14.20;97.60;;;;;;5092030;28;20208;-61
2023/06/04 03:49:52;;;;;;;3.37;2.37;;;14.20;97.70;;;;;;5091995;28;20200;-60
2023/06/04 03:52:19;;;;;;;4.57;2.60;;;14.20;97.80;;;;;;5091923;28;20212;-60
2023/06/04 03:54:45;;;;;;;3.47;2.67;;;14.30;98.00;;;;;;5091760;28;20613;-61
2023/06/04 03:57:12;;;;;;;5.53;2.87;;;14.30;98.10;;;;;;5091496;28;20613;-61
2023/06/04 03:59:39;;;;;;;5.83;2.70;;;14.30;98.10;;;;;;5091379;28;20204;-60
2023/06/04 04:02:06;;;;;;;4.43;2.77;;;14.40;98.00;;;;;;5091775;28;20259;-60
2023/06/04 04:04:34;;;;;;;4.00;2.53;;;14.50;97.80;;;;;;5091654;28;20224;-60
2023/06/04 04:07:01;;;;;;;4.60;3.03;;;14.60;97.80;;;;;;5091347;28;20259;-61
2023/06/04 04:09:27;;;;;;;4.80;2.37;;;14.70;97.60;;;;;;5091385;28;20295;-60
2023/06/04 04:11:54;;;;;;;3.03;2.50;;;14.70;97.30;;;;;;5091273;28;20208;-60
2023/06/04 04:14:21;;;;;;;4.20;2.40;;;14.70;97.20;;;;;;5091352;28;20304;-61
2023/06/04 04:16:47;;;;;;;3.37;2.43;;;14.70;96.70;;;;;;5091296;28;20215;-61
2023/06/04 04:19:14;;;;;;;4.07;2.43;;;14.80;96.40;;;;;;5091229;28;20696;-61
2023/06/04 04:21:42;;;;;;;3.53;2.40;;;14.80;96.00;;;;;;5091380;28;20572;-60
2023/06/04 04:24:09;;;;;;;3.60;2.20;;;14.80;95.90;;;;;;5091368;28;20649;-61
2023/06/04 04:26:36;;;;;;;3.38;2.45;;;14.80;95.70;;;;;;5091043;28;20231;-60
2023/06/04 04:29:03;;;;;;;3.60;2.40;;;14.90;95.70;;;;;;5091509;28;20580;-61
2023/06/04 04:31:30;;;;;;;4.57;2.50;;;15.00;95.60;;;;;;5091682;28;20249;-60
2023/06/04 04:33:57;;;;;;;4.10;2.17;;;15.10;95.10;;;;;;5091140;28;20310;-61
2023/06/04 04:36:24;;;;;;;5.57;2.27;;;15.20;94.50;;;;;;5090896;28;20200;-61
2023/06/04 04:38:54;;;;;;;4.50;2.00;;;15.30;93.80;;;;;;5091249;28;20222;-61
2023/06/04 04:41:20;;;;;;;3.77;2.20;;;15.30;93.50;;;;;;5091157;28;20273;-60
2023/06/04 04:43:47;;;;;;;2.83;2.23;;;15.50;93.20;;;;;;5090967;28;20221;-61
2023/06/04 04:46:14;;;;;;;8.00;2.63;;;15.50;93.10;;;;;;5090936;28;20208;-61
2023/06/04 04:48:42;;;;;;;3.40;2.20;;;15.50;93.30;;;;;;5091145;28;20261;-61
2023/06/04 04:51:08;;;;;;;2.30;2.10;;;15.60;93.40;;;;;;5091036;28;20554;-61
2023/06/04 04:53:36;;;;;;;3.95;2.38;;;15.60;93.50;;;;;;5090801;28;20274;-63
2023/06/04 04:56:04;;;;;;;4.63;2.20;;;15.60;93.40;;;;;;5090792;28;20215;-61
2023/06/04 04:58:30;;;;;;;2.40;2.17;;;15.60;93.40;;;;;;5090997;28;20584;-61
2023/06/04 05:00:57;;;;;;;4.72;2.03;;;15.60;93.30;;;;;;5090963;28;20220;-61
2023/06/04 05:03:24;;;;;;;2.33;1.90;;;15.70;92.90;;;;;;5090802;28;20215;-62
2023/06/04 05:05:50;;;;;;;5.63;2.00;;;15.70;92.90;;;;;;5090631;28;20205;-61
2023/06/04 05:08:17;;;;;;;2.70;2.08;;;15.80;93.00;;;;;;5090887;28;20265;-61
2023/06/04 05:10:44;;;;;;;2.20;1.80;;;15.90;92.90;;;;;;5090875;28;20617;-60
2023/06/04 05:13:12;;;;;;;3.60;1.90;;;16.60;92.40;;;;;;5091103;28;20204;-61
2023/06/04 05:15:39;;;;;;;5.63;2.15;;;17.70;90.40;;;;;;5090731;28;20257;-61
2023/06/04 05:18:07;;;;;;;3.00;1.75;;;18.60;87.60;;;;;;5090722;28;20299;-62
2023/06/04 05:20:35;;;;;;;3.38;2.13;;;19.60;84.50;;;;;;5090547;28;20228;-61
2023/06/04 05:23:02;;;;;;;3.20;2.05;;;20.00;81.10;;;;;;5093404;28;20215;-61
2023/06/04 05:25:28;;;;;;;5.15;2.50;;;19.80;80.20;;;;;;5094466;28;20238;-62
2023/06/04 05:27:57;;;;;;;3.97;1.88;;;19.40;80.60;;;;;;5094638;28;20204;-60
2023/06/04 05:30:25;;;;;;;8.70;2.08;;;18.90;81.70;;;;;;5094544;28;20204;-61
2023/06/04 05:32:53;;;;;;;4.30;1.92;;;18.60;82.60;;;;;;5094475;28;20204;-62
2023/06/04 05:35:20;;;;;;;3.13;1.90;;;18.30;83.60;;;;;;5094686;28;20228;-62
2023/06/04 05:37:53;;;;;;;3.90;1.92;;;18.20;83.80;;;;;;5094191;28;20204;-62
2023/06/04 05:40:21;;;;;;;4.75;1.98;;;18.00;84.00;;;;;;5094246;28;20204;-61
2023/06/04 05:42:49;;;;;;;4.07;2.03;;;18.20;83.90;;;;;;5094255;28;20327;-61
2023/06/04 05:45:15;;;;;;;2.30;1.88;;;18.40;83.50;;;;;;5094239;28;20235;-62
2023/06/04 05:47:43;;;;;;;4.50;1.88;;;18.90;83.70;;;;;;5094119;28;20748;-61
2023/06/04 05:50:11;;;;;;;2.70;1.92;;;20.30;80.10;;;;;;5094140;28;20269;-62
2023/06/04 05:52:37;;;;;;;4.18;1.90;;;21.40;76.20;;;;;;5093909;28;20593;-60
2023/06/04 05:55:07;;;;;;;5.47;2.10;;;21.80;73.70;;;;;;5094089;28;20297;-61
2023/06/04 05:57:34;;;;;;;3.47;1.98;;;21.90;72.70;;;;;;5093704;28;20298;-62
2023/06/04 06:00:00;;;;;;;3.55;2.03;;;22.00;72.50;;;;;;5093729;28;20677;-61
2023/06/04 06:02:27;;;;;;;2.85;1.90;;;23.20;70.60;;;;;;5093553;28;20232;-62
2023/06/04 06:04:56;;;;;;;2.40;1.63;;;25.20;66.00;;;;;;5093570;28;20247;-62
2023/06/04 06:07:22;;;;;;;2.67;1.80;;;27.40;60.20;;;;;;5093528;28;20765;-62
2023/06/04 06:09:49;;;;;;;2.08;1.60;;;29.30;56.40;;;;;;5093566;28;20637;-62
2023/06/04 06:12:16;;;;;;;2.53;2.00;;;30.90;53.50;;;;;;5093671;28;20195;-62
2023/06/04 06:14:42;;;;;;;5.53;1.60;;;31.70;50.90;;;;;;5093520;28;20289;-62
2023/06/04 06:17:10;;;;;;;3.67;1.65;;;32.30;48.30;;;;;;5093605;28;20216;-63
2023/06/04 06:19:37;;;;;;;2.20;1.67;;;33.30;46.20;;;;;;5093664;28;20204;-62
2023/06/04 06:22:05;;;;;;;5.00;1.75;;;34.00;44.30;;;;;;5093542;28;20273;-62
2023/06/04 06:24:32;;;;;;;5.18;2.67;;;34.70;43.50;;;;;;5093529;28;20587;-62
2023/06/04 06:26:59;;;;;;;3.67;1.67;;;35.60;41.80;;;;;;5093537;28;20208;-62
2023/06/04 06:29:25;;;;;;;3.17;1.60;;;36.30;40.10;;;;;;5093446;28;20777;-62
2023/06/04 06:31:52;;;;;;;2.05;1.50;;;36.90;39.70;;;;;;5093469;28;20285;-66
2023/06/04 06:34:19;;;;;;;2.65;1.60;;;37.30;39.00;;;;;;5091910;28;20740;-62
2023/06/04 06:36:46;;;;;;;2.85;1.40;;;37.50;38.50;;;;;;5093106;28;20218;-62
2023/06/04 06:39:15;;;;;;;2.33;1.50;;;37.90;38.30;;;;;;5093008;28;20662;-62
2023/06/04 06:41:41;;;;;;;3.88;1.90;;;38.20;37.50;;;;;;5092879;28;20253;-62
2023/06/04 06:44:08;;;;;;;3.65;1.80;;;38.40;37.40;;;;;;5092630;28;20224;-62
2023/06/04 06:46:35;;;;;;;4.40;1.40;;;38.70;36.80;;;;;;5092725;28;20204;-63
2023/06/04 06:49:01;;;;;;;1.88;1.50;;;38.90;36.50;;;;;;5093058;28;20208;-62
2023/06/04 06:51:28;;;;;;;3.15;1.73;;;38.90;36.30;;;;;;5092996;28;20200;-63
2023/06/04 06:53:55;;;;;;;3.05;1.90;;;39.00;35.80;;;;;;5092640;28;20236;-62
2023/06/04 06:56:23;;;;;;;5.20;2.40;;;38.60;36.50;;;;;;5092176;28;20228;-63
2023/06/04 06:58:50;;;;;;;2.20;1.60;;;38.60;36.60;;;;;;5092359;28;20273;-62
2023/06/04 07:01:16;;;;;;;1.95;1.50;;;38.80;36.40;;;;;;5092691;28;20307;-63
2023/06/04 07:03:43;;;;;;;2.38;1.63;;;39.40;35.40;;;;;;5092555;28;20224;-63
2023/06/04 07:06:11;;;;;;;2.88;1.63;;;39.70;35.10;;;;;;5092346;28;20220;-63
2023/06/04 07:08:37;;;;;;;4.57;2.20;;;39.70;35.20;;;;;;5092539;28;20245;-62
2023/06/04 07:11:04;;;;;;;3.05;1.80;;;40.00;35.50;;;;;;5092640;28;20264;-62
2023/06/04 07:13:34;;;;;;;3.95;1.80;;;40.10;34.90;;;;;;5093039;28;20224;-64
2023/06/04 07:16:01;;;;;;;2.47;1.55;;;40.30;34.70;;;;;;5092244;28;20238;-62
2023/06/04 07:18:28;;;;;;;4.07;1.88;;;40.70;34.60;;;;;;5092146;28;20597;-62
2023/06/04 07:20:55;;;;;;;2.80;1.50;;;40.80;34.20;;;;;;5092182;28;20585;-63
2023/06/04 07:23:21;;;;;;;2.80;1.77;;;40.80;34.60;;;;;;5091810;28;20736;-61
2023/06/04 07:25:48;;;;;;;1.77;1.40;;;41.00;34.20;;;;;;5091725;28;20199;-64
2023/06/04 07:28:15;;;;;;;4.05;2.00;;;41.50;33.80;;;;;;5091587;28;20206;-62
2023/06/04 07:30:45;;;;;;;3.38;1.60;;;42.00;33.70;;;;;;5091858;28;20653;-63
2023/06/04 07:33:12;;;;;;;2.00;1.52;;;42.40;32.90;;;;;;5091619;28;20229;-61
2023/06/04 07:35:39;;;;;;;3.28;1.50;;;42.50;32.70;;;;;;5091512;28;20257;-61
2023/06/04 07:38:05;;;;;;;4.47;1.70;;;42.80;32.60;;;;;;5091251;28;20604;-61
2023/06/04 07:40:32;;;;;;;3.03;1.90;;;42.80;32.40;;;;;;5091457;28;20616;-61
2023/06/04 07:42:59;;;;;;;10.85;8.93;;;42.40;32.60;;;;;;5091511;28;20223;-61
2023/06/04 07:45:25;;;;;;;5.82;1.77;;;41.90;33.40;;;;;;5091324;28;20253;-60
2023/06/04 07:47:53;;;;;;;7.50;1.90;;;41.50;33.50;;;;;;5091285;28;20210;-61
2023/06/04 07:50:20;;;;;;;4.03;1.65;;;41.20;33.40;;;;;;5091606;28;20203;-61
2023/06/04 07:52:47;;;;;;;2.78;1.50;;;41.30;32.90;;;;;;5091443;28;20534;-61
2023/06/04 07:55:14;;;;;;;2.60;1.85;;;41.60;32.90;;;;;;5091213;28;20223;-62
2023/06/04 07:57:41;;;;;;;3.75;1.70;;;41.60;32.80;;;;;;5091206;28;20663;-62
2023/06/04 08:00:09;;;;;;;2.10;1.70;;;41.30;32.70;;;;;;5091461;28;20231;-62
2023/06/04 08:02:35;;;;;;;2.15;1.60;;;41.70;32.90;;;;;;5091339;28;20316;-62
2023/06/04 08:05:04;;;;;;;3.88;1.75;;;42.10;33.00;;;;;;5091194;28;20254;-62
2023/06/04 08:07:31;;;;;;;2.20;1.55;;;42.30;32.40;;;;;;5091000;28;20265;-62
2023/06/04 08:09:58;;;;;;;4.00;1.85;;;42.60;32.30;;;;;;5091387;28;20206;-61
2023/06/04 08:12:25;;;;;;;7.25;2.70;;;42.80;32.00;;;;;;5091162;28;20203;-61
2023/06/04 08:14:51;;;;;;;4.00;1.90;;;41.80;33.10;;;;;;5091115;28;20236;-61
2023/06/04 08:17:18;;;;;;;4.13;2.15;;;41.70;32.70;;;;;;5091012;28;20260;-61
2023/06/04 08:19:45;;;;;;;2.50;1.80;;;41.40;32.90;;;;;;5091014;28;20206;-61
2023/06/04 08:22:13;;;;;;;6.95;1.90;;;41.20;32.70;;;;;;5091108;28;20647;-62
2023/06/04 08:24:40;;;;;;;3.40;1.90;;;40.90;32.90;;;;;;5091253;28;20227;-62
2023/06/04 08:27:08;;;;;;;3.15;1.83;;;40.80;33.20;;;;;;5090931;28;20204;-62
2023/06/04 08:29:35;;;;;;;3.00;1.90;;;40.70;33.40;;;;;;5091212;28;20231;-62
2023/06/04 08:32:02;;;;;;;2.22;1.67;;;40.60;33.50;;;;;;5090926;28;20204;-62
2023/06/04 08:34:28;;;;;;;2.92;1.60;;;40.60;33.80;;;;;;5091068;28;20234;-62
2023/06/04 08:36:55;;;;;;;5.20;1.92;;;39.90;34.40;;;;;;5090640;28;20650;-61
2023/06/04 08:39:23;;;;;;;3.45;1.95;;;39.40;35.10;;;;;;5091060;28;20250;-61
2023/06/04 08:41:53;;;;;;;6.63;2.20;;;38.60;35.60;;;;;;5090809;28;20224;-61
2023/06/04 08:44:20;;;;;;;3.20;1.98;;;37.50;36.60;;;;;;5090811;28;20854;-61
2023/06/04 08:46:51;;;;;;;3.65;2.05;;;36.80;36.30;;;;;;5090447;28;20224;-61
2023/06/04 08:49:20;;;;;;;2.55;1.88;;;36.00;37.20;;;;;;5090784;28;20208;-61
2023/06/04 08:51:48;;;;;;;2.60;2.03;;;34.90;39.30;;;;;;5090797;28;20196;-60
2023/06/04 08:54:15;;;;;;;1.67;1.58;;;33.80;40.80;;;;;;5090940;28;20235;-59
2023/06/04 08:56:45;;;;;;;3.85;2.08;;;32.70;41.80;;;;;;5090918;28;20200;-60
2023/06/04 08:59:13;;;;;;;3.40;1.90;;;31.50;42.80;;;;;;5094812;28;20204;-61
2023/06/04 09:01:44;;;;;;;3.25;1.98;;;30.40;44.60;;;;;;5094644;28;20204;-60
2023/06/04 09:04:11;;;;;;;4.35;2.17;;;29.20;46.50;;;;;;5094868;28;20305;-60
2023/06/04 09:06:40;;;;;;;4.05;1.83;;;28.20;47.40;;;;;;5094764;28;20201;-61
2023/06/04 09:09:10;;;;;;;3.08;2.10;;;27.40;49.00;;;;;;5094643;28;20677;-61
2023/06/04 09:11:46;;;;;;;3.83;2.20;;;26.90;50.00;;;;;;5094783;28;20265;-61
2023/06/04 09:14:16;;;;;;;9.00;2.22;;;26.70;49.50;;;;;;5094919;28;20231;-61
2023/06/04 09:16:47;;;;;;;2.72;2.00;;;26.30;49.30;;;;;;5094485;28;20294;-60
2023/06/04 09:19:14;;;;;;;3.65;2.00;;;25.80;49.50;;;;;;5095127;28;20447;-61
2023/06/04 09:21:51;;;;;;;3.13;2.10;;;25.60;49.70;;;;;;5094431;28;20685;-60
2023/06/04 09:24:18;;;;;;;6.47;1.90;;;25.50;49.30;;;;;;5094467;28;20280;-62
2023/06/04 09:26:46;;;;;;;5.10;2.08;;;25.60;49.20;;;;;;5094009;28;20215;-61
2023/06/04 09:29:13;;;;;;;4.90;2.17;;;25.60;48.80;;;;;;5094152;28;20204;-60
2023/06/04 09:31:40;;;;;;;5.20;1.80;;;25.70;49.10;;;;;;5094484;28;20295;-60
2023/06/04 09:34:07;;;;;;;3.58;2.17;;;25.60;48.80;;;;;;5094100;28;20231;-60
2023/06/04 09:36:35;;;;;;;4.30;2.22;;;25.60;48.40;;;;;;5093719;28;20214;-62
2023/06/04 09:39:03;;;;;;;5.13;2.40;;;25.60;48.30;;;;;;5093672;28;20291;-60
2023/06/04 09:41:30;;;;;;;7.05;2.30;;;25.60;48.20;;;;;;5093760;28;20204;-62
2023/06/04 09:44:05;;;;;;;2.85;2.20;;;25.70;48.40;;;;;;5093593;28;20228;-62
2023/06/04 09:46:32;;;;;;;4.88;2.05;;;25.70;48.10;;;;;;5093742;28;20616;-60
2023/06/04 09:49:03;;;;;;;3.42;2.38;;;25.70;48.50;;;;;;5093741;28;20215;-61
2023/06/04 09:51:31;;;;;;;5.88;2.47;;;25.60;47.00;;;;;;5093790;28;20215;-60
2023/06/04 09:53:58;;;;;;;4.07;2.47;;;25.50;47.30;;;;;;5093992;28;20224;-60
2023/06/04 09:56:26;;;;;;;4.78;2.17;;;25.50;48.00;;;;;;5093637;28;20295;-61
2023/06/04 09:58:56;;;;;;;3.65;2.20;;;25.60;47.80;;;;;;5093953;28;20208;-60
2023/06/04 10:01:25;;;;;;;3.45;2.20;;;25.70;48.30;;;;;;5093699;28;20539;-61
2023/06/04 10:03:52;;;;;;;5.65;2.22;;;25.60;48.30;;;;;;5093372;28;20231;-61
2023/06/04 10:06:20;;;;;;;8.43;2.78;;;25.60;48.20;;;;;;5093690;28;20232;-61
2023/06/04 10:08:48;;;;;;;4.88;2.50;;;25.60;48.60;;;;;;5093458;28;20658;-61
2023/06/04 10:11:21;;;;;;;4.32;2.30;;;25.80;48.10;;;;;;5093415;28;20227;-60
2023/06/04 10:13:53;;;;;;;3.65;2.40;;;26.00;48.40;;;;;;5093170;28;20231;-60
2023/06/04 10:16:21;;;;;;;3.92;2.10;;;26.00;48.30;;;;;;5092287;28;20216;-60
2023/06/04 10:18:50;;;;;;;3.05;2.50;;;26.00;49.00;;;;;;5092268;28;20213;-61
2023/06/04 10:21:19;;;;;;;4.63;2.40;;;25.90;49.40;;;;;;5092591;28;20295;-61
2023/06/04 10:23:46;;;;;;;4.75;2.42;;;25.90;49.30;;;;;;5092273;28;20392;-61
2023/06/04 10:26:15;;;;;;;3.58;2.20;;;26.00;48.60;;;;;;5092356;28;20644;-61
2023/06/04 10:28:43;;;;;;;4.78;2.38;;;26.00;49.00;;;;;;5092063;28;20315;-61
2023/06/04 10:31:10;;;;;;;4.13;2.45;;;26.00;48.80;;;;;;5091979;28;20252;-61
2023/06/04 10:33:37;;;;;;;4.72;2.58;;;26.20;48.50;;;;;;5092416;28;20267;-62
2023/06/04 10:36:19;;;;;;;4.50;2.47;;;26.20;48.00;;;;;;5091724;28;20684;-63
2023/06/04 10:38:47;;;;;;;2.95;1.92;;;26.30;48.10;;;;;;5092300;28;20223;-62
2023/06/04 10:41:15;;;;;;;3.05;2.05;;;26.30;47.80;;;;;;5092153;28;20599;-61
2023/06/04 10:43:42;;;;;;;3.85;2.17;;;26.30;47.50;;;;;;5091601;28;20263;-60
2023/06/04 10:46:13;;;;;;;3.50;2.15;;;26.20;47.40;;;;;;5091891;28;20200;-62
2023/06/04 10:48:46;;;;;;;4.72;2.47;;;26.20;48.40;;;;;;5093370;28;20212;-60
2023/06/04 10:51:13;;;;;;;4.18;2.03;;;26.30;48.00;;;;;;5092230;28;20204;-61
2023/06/04 10:53:41;;;;;;;3.90;2.30;;;26.40;48.10;;;;;;5091946;28;20220;-60
2023/06/04 10:56:08;;;;;;;4.03;2.50;;;26.40;48.20;;;;;;5091568;28;20250;-59
2023/06/04 10:58:35;;;;;;;3.58;2.17;;;26.30;48.10;;;;;;5092086;28;20560;-60
2023/06/04 11:01:02;;;;;;;4.40;2.03;;;26.20;47.40;;;;;;5091722;28;20646;-61
2023/06/04 11:03:36;;;;;;;3.90;2.38;;;26.00;47.90;;;;;;5091720;28;20228;-60
2023/06/04 11:06:03;;;;;;;3.75;2.20;;;26.00;48.00;;;;;;5091653;28;20294;-59
2023/06/04 11:08:31;;;;;;;3.63;2.65;;;26.00;47.70;;;;;;5091669;28;20212;-60
2023/06/04 11:10:59;;;;;;;5.05;3.00;;;26.10;47.70;;;;;;5091669;28;20212;-60
2023/06/04 11:13:26;;;;;;;7.70;2.80;;;26.10;48.20;;;;;;5054662;28;1059420;-60
2023/06/04 11:15:53;;;;;;;6.45;2.97;;;26.10;48.40;;;;;;5092261;28;20236;-60
2023/06/04 11:18:21;;;;;;;6.80;3.00;;;26.20;47.40;;;;;;5092658;28;20208;-61
2023/06/04 11:20:49;;;;;;;3.95;2.70;;;26.30;47.70;;;;;;5091887;28;20212;-60
2023/06/04 11:23:17;;;;;;;4.35;2.40;;;26.30;47.70;;;;;;5092199;28;20220;-60
2023/06/04 11:25:45;;;;;;;5.07;2.35;;;26.40;48.10;;;;;;5092282;28;20208;-60
2023/06/04 11:28:17;;;;;;;3.05;2.53;;;26.30;48.50;;;;;;5092172;28;20226;-61
2023/06/04 11:30:44;;;;;;;7.18;2.58;;;26.20;47.90;;;;;;5092126;28;20200;-60
2023/06/04 11:33:11;;;;;;;4.88;2.65;;;26.10;47.80;;;;;;5091873;28;20593;-60
2023/06/04 11:35:41;;;;;;;4.13;2.58;;;26.10;47.90;;;;;;5092024;28;20204;-60
2023/06/04 11:38:09;;;;;;;4.22;2.67;;;26.00;48.00;;;;;;5091750;28;20633;-60
2023/06/04 11:40:36;;;;;;;4.40;2.20;;;26.10;48.00;;;;;;5092019;28;20208;-60
2023/06/04 11:43:03;;;;;;;5.45;2.30;;;26.20;48.30;;;;;;5091904;28;20227;-59
2023/06/04 11:45:31;;;;;;;3.25;2.17;;;26.20;48.50;;;;;;5091702;28;20227;-60
2023/06/04 11:47:58;;;;;;;4.95;2.10;;;26.20;47.80;;;;;;5091666;28;20204;-61
2023/06/04 11:50:28;;;;;;;3.65;2.25;;;26.20;48.10;;;;;;5091699;28;20204;-60
2023/06/04 11:52:55;;;;;;;3.85;2.28;;;26.20;48.20;;;;;;5092082;28;20500;-60
2023/06/04 11:55:24;;;;;;;5.55;2.17;;;26.30;47.60;;;;;;5091796;28;20243;-61
2023/06/04 11:57:51;;;;;;;3.67;2.40;;;26.40;47.50;;;;;;5091513;28;20360;-61
2023/06/04 12:00:19;;;;;;;3.75;2.50;;;26.50;47.50;;;;;;5091713;28;20208;-60
2023/06/04 12:02:52;;;;;;;5.25;2.58;;;26.70;47.40;;;;;;5091487;28;20604;-60
2023/06/04 12:05:22;;;;;;;3.45;2.15;;;26.80;47.10;;;;;;5092026;28;20224;-60
2023/06/04 12:07:50;;;;;;;4.35;2.22;;;26.80;46.70;;;;;;5091434;28;20244;-59
2023/06/04 12:10:17;;;;;;;3.10;2.17;;;26.80;46.40;;;;;;5091604;28;20261;-62
2023/06/04 12:12:44;;;;;;;4.82;2.33;;;26.80;46.60;;;;;;5091613;28;20215;-61
2023/06/04 12:15:11;;;;;;;6.45;2.60;;;26.90;46.20;;;;;;5091293;28;20735;-63
2023/06/04 12:17:38;;;;;;;2.97;2.40;;;26.90;46.40;;;;;;5091380;28;20630;-60
2023/06/04 12:20:09;;;;;;;2.78;2.45;;;27.00;46.30;;;;;;5091895;28;20284;-62
2023/06/04 12:22:45;;;;;;;3.42;2.50;;;27.00;46.50;;;;;;5091523;28;20214;-62
2023/06/04 12:25:12;;;;;;;4.93;2.35;;;27.10;47.00;;;;;;5091261;28;20315;-61
2023/06/04 12:27:48;;;;;;;3.05;2.55;;;27.10;46.50;;;;;;5091359;28;20212;-62
2023/06/04 12:30:16;;;;;;;3.85;2.55;;;27.00;46.40;;;;;;5091493;28;20238;-61
2023/06/04 12:32:43;;;;;;;2.92;2.53;;;27.10;46.50;;;;;;5090202;28;20212;-62
2023/06/04 12:35:11;;;;;;;4.50;2.53;;;27.10;46.30;;;;;;5091624;28;20310;-61
2023/06/04 12:37:39;;;;;;;5.72;2.80;;;27.20;46.00;;;;;;5091137;28;20215;-62
2023/06/04 12:40:07;;;;;;;3.35;2.45;;;27.20;45.80;;;;;;5091815;28;20254;-62
2023/06/04 12:42:34;;;;;;;5.82;2.42;;;27.10;45.60;;;;;;5091195;28;20208;-62
2023/06/04 12:45:00;;;;;;;4.10;2.45;;;27.00;46.10;;;;;;5091609;28;20458;-62
2023/06/04 12:47:27;;;;;;;3.75;2.13;;;27.00;45.70;;;;;;5091608;28;20604;-61